Time;durP1;ratioP1;P1;durP2;ratioP2;P2;SDS_P1;SDS_P2;PMS_P1;PMS_P2;Temp;Humidity;BMP_temperature;BMP_pressure;BME280_temperature;BME280_humidity;BME280_pressure;Samples;Min_cycle;Max_cycle;Signal;HPM_P1;HPM_P2
2021/06/09 00:02:02;;;;;;;4.25;2.97;;;17.80;81.40;;;;;;5011643;28;20136;-60
2021/06/09 00:04:29;;;;;;;2.47;2.05;;;17.80;81.60;;;;;;4992409;28;20026;-60
2021/06/09 00:06:54;;;;;;;2.25;2.05;;;17.80;81.60;;;;;;5009557;28;20026;-60
2021/06/09 00:09:20;;;;;;;2.63;2.40;;;17.80;81.30;;;;;;5008314;28;20037;-60
2021/06/09 00:11:46;;;;;;;4.93;1.80;;;17.70;80.80;;;;;;5010343;28;20030;-60
2021/06/09 00:14:13;;;;;;;2.33;1.83;;;17.60;80.80;;;;;;4990545;28;20033;-60
2021/06/09 00:16:39;;;;;;;4.50;2.08;;;17.50;80.80;;;;;;5010257;28;20475;-60
2021/06/09 00:19:05;;;;;;;2.67;2.28;;;17.50;81.20;;;;;;5007590;28;20056;-60
2021/06/09 00:21:31;;;;;;;2.63;2.10;;;17.50;81.40;;;;;;5008375;28;20025;-60
2021/06/09 00:23:57;;;;;;;4.03;2.58;;;17.50;81.80;;;;;;5010515;28;20021;-60
2021/06/09 00:26:23;;;;;;;3.65;3.17;;;17.50;82.20;;;;;;5009552;28;20021;-60
2021/06/09 00:28:49;;;;;;;3.25;2.05;;;17.50;82.10;;;;;;5008975;28;20068;-60
2021/06/09 00:31:15;;;;;;;3.78;2.85;;;17.50;82.80;;;;;;5007942;28;20545;-61
2021/06/09 00:33:41;;;;;;;2.90;2.05;;;17.60;82.70;;;;;;4989522;28;20395;-61
2021/06/09 00:36:07;;;;;;;4.28;2.08;;;17.60;82.60;;;;;;5029922;22;20080;-80
2021/06/09 00:38:32;;;;;;;2.58;1.98;;;17.60;82.20;;;;;;5029188;28;20021;-80
2021/06/09 00:40:59;;;;;;;2.70;2.13;;;17.60;82.20;;;;;;5032491;28;20024;-80
2021/06/09 00:43:27;;;;;;;3.17;2.55;;;17.70;82.60;;;;;;5029849;28;20036;-80
2021/06/09 00:46:02;;;;;;;2.92;2.10;;;17.70;83.50;;;;;;5031455;28;20113;-80
2021/06/09 00:48:30;;;;;;;3.40;3.10;;;17.70;83.10;;;;;;5025729;28;20060;-80
2021/06/09 00:51:17;;;;;;;2.85;2.20;;;17.70;83.10;;;;;;5028215;28;20472;-80
2021/06/09 00:54:26;;;;;;;3.33;2.40;;;17.70;83.10;;;;;;5031333;28;20033;-80
2021/06/09 00:56:35;;;;;;;2.67;2.47;;;17.60;82.80;;;;;;5019216;28;20655;-79
2021/06/09 00:59:02;;;;;;;3.78;2.17;;;17.60;82.70;;;;;;5021036;28;20461;-80
2021/06/09 01:01:29;;;;;;;5.63;2.60;;;17.60;82.80;;;;;;5028205;28;20048;-80
2021/06/09 01:03:55;;;;;;;6.40;2.05;;;17.50;82.60;;;;;;5020463;28;20026;-80
2021/06/09 01:06:21;;;;;;;3.55;2.40;;;17.40;82.60;;;;;;5026064;28;20088;-80
2021/06/09 01:08:48;;;;;;;3.70;3.35;;;17.40;82.90;;;;;;5028886;28;20027;-80
2021/06/09 01:11:19;;;;;;;3.03;2.75;;;17.40;83.20;;;;;;5027737;28;20946;-80
2021/06/09 01:13:46;;;;;;;3.05;2.55;;;17.40;83.30;;;;;;5028373;28;20478;-80
2021/06/09 01:16:11;;;;;;;3.85;2.65;;;17.40;83.30;;;;;;5030351;28;20037;-80
2021/06/09 01:18:37;;;;;;;2.97;2.60;;;17.40;83.20;;;;;;5026519;28;20104;-80
2021/06/09 01:21:04;;;;;;;2.75;2.55;;;17.30;83.00;;;;;;5028214;28;20033;-80
2021/06/09 01:23:29;;;;;;;2.40;2.15;;;17.30;83.20;;;;;;5024449;28;20060;-80
2021/06/09 01:25:56;;;;;;;3.00;2.40;;;17.30;83.30;;;;;;5029854;28;20052;-80
2021/06/09 01:28:22;;;;;;;3.20;2.63;;;17.30;83.20;;;;;;5027764;28;20032;-80
2021/06/09 01:30:48;;;;;;;2.92;2.40;;;17.30;83.30;;;;;;5030398;28;20453;-79
2021/06/09 01:33:15;;;;;;;3.20;2.67;;;17.30;83.50;;;;;;5029603;28;20335;-80
2021/06/09 01:35:42;;;;;;;7.05;3.40;;;17.20;83.90;;;;;;5029928;28;20489;-80
2021/06/09 01:38:08;;;;;;;5.32;4.40;;;17.20;84.20;;;;;;5023317;28;20164;-80
2021/06/09 01:40:34;;;;;;;6.93;4.40;;;17.30;84.70;;;;;;5027679;28;20551;-80
2021/06/09 01:43:02;;;;;;;3.63;3.33;;;17.30;85.00;;;;;;5037527;28;20411;-80
2021/06/09 01:45:30;;;;;;;5.13;4.30;;;17.30;85.20;;;;;;5026936;28;20029;-80
2021/06/09 01:47:56;;;;;;;6.10;3.63;;;17.30;85.50;;;;;;5029731;28;20025;-80
2021/06/09 01:50:23;;;;;;;6.90;4.18;;;17.30;85.40;;;;;;5026807;28;20025;-80
2021/06/09 01:52:50;;;;;;;13.80;11.75;;;17.30;85.20;;;;;;5027599;28;20095;-81
2021/06/09 01:55:18;;;;;;;5.03;4.45;;;17.30;85.50;;;;;;5033703;28;20033;-81
2021/06/09 01:57:44;;;;;;;6.45;5.13;;;17.30;85.00;;;;;;5029043;28;20041;-80
2021/06/09 02:00:16;;;;;;;18.00;12.40;;;17.30;85.20;;;;;;5023190;28;20037;-80
2021/06/09 02:02:42;;;;;;;6.55;5.75;;;17.20;85.40;;;;;;5029203;28;20701;-80
2021/06/09 02:05:09;;;;;;;5.63;4.78;;;17.20;85.50;;;;;;5030393;28;20026;-81
2021/06/09 02:07:37;;;;;;;3.03;2.70;;;17.20;86.30;;;;;;5027886;28;20041;-80
2021/06/09 02:10:07;;;;;;;5.72;3.75;;;17.20;86.10;;;;;;5022525;28;20056;-81
2021/06/09 02:12:33;;;;;;;4.25;2.72;;;17.20;86.10;;;;;;5028142;28;20029;-80
2021/06/09 02:14:59;;;;;;;4.93;2.83;;;17.10;85.70;;;;;;5030069;28;20397;-81
2021/06/09 02:17:24;;;;;;;3.25;2.75;;;17.10;85.60;;;;;;5027056;28;20034;-80
2021/06/09 02:19:50;;;;;;;4.35;3.03;;;17.00;85.50;;;;;;5027297;28;20075;-80
2021/06/09 02:22:15;;;;;;;4.78;3.40;;;17.00;85.60;;;;;;5025591;28;20033;-80
2021/06/09 02:24:41;;;;;;;7.40;3.80;;;17.00;85.90;;;;;;5029508;28;20024;-80
2021/06/09 02:27:06;;;;;;;4.55;3.03;;;16.90;85.90;;;;;;5026695;28;20049;-80
2021/06/09 02:29:32;;;;;;;3.63;2.95;;;16.90;86.10;;;;;;5027189;28;20374;-80
2021/06/09 02:31:58;;;;;;;5.22;4.00;;;16.90;85.90;;;;;;5027975;28;20052;-80
2021/06/09 02:34:25;;;;;;;4.60;3.63;;;16.90;85.90;;;;;;5027413;28;20400;-80
2021/06/09 02:36:53;;;;;;;3.83;3.00;;;16.90;85.80;;;;;;5028245;28;20044;-80
2021/06/09 02:39:20;;;;;;;6.63;5.78;;;17.00;85.70;;;;;;5025368;28;20033;-80
2021/06/09 02:41:46;;;;;;;5.43;4.30;;;16.90;85.80;;;;;;5029407;28;20029;-80
2021/06/09 02:44:12;;;;;;;6.82;3.03;;;17.00;86.10;;;;;;5021905;28;20480;-80
2021/06/09 02:46:42;;;;;;;4.18;3.75;;;17.00;85.90;;;;;;5027178;28;20033;-80
2021/06/09 02:49:12;;;;;;;3.55;3.25;;;17.00;85.80;;;;;;5026279;28;20029;-80
2021/06/09 02:51:50;;;;;;;3.97;3.50;;;17.00;85.70;;;;;;5028227;28;20095;-80
2021/06/09 02:54:33;;;;;;;5.20;3.60;;;17.00;85.80;;;;;;5026151;28;20025;-80
2021/06/09 02:57:05;;;;;;;6.35;4.13;;;17.00;85.70;;;;;;5029425;28;20033;-80
2021/06/09 02:59:56;;;;;;;5.22;3.13;;;17.00;85.90;;;;;;5021631;28;20029;-80
2021/06/09 03:02:49;;;;;;;5.70;2.78;;;17.00;85.80;;;;;;5026420;28;20034;-80
2021/06/09 03:05:48;;;;;;;5.47;2.80;;;16.90;85.70;;;;;;5028590;28;20029;-78
2021/06/09 03:08:26;;;;;;;3.42;3.13;;;16.90;86.00;;;;;;5023968;28;20797;-80
2021/06/09 03:11:22;;;;;;;5.88;3.22;;;16.90;87.10;;;;;;5027572;28;20036;-79
2021/06/09 03:15:10;;;;;;;5.20;2.40;;;16.90;86.50;;;;;;5023509;28;20120;-79
2021/06/09 03:17:19;;;;;;;7.57;4.00;;;16.90;86.70;;;;;;5016054;28;20476;-79
2021/06/09 03:20:06;;;;;;;3.35;2.65;;;16.80;86.20;;;;;;5011521;28;20025;-79
2021/06/09 03:22:50;;;;;;;4.78;3.10;;;16.80;86.10;;;;;;5022889;28;20048;-79
2021/06/09 03:25:20;;;;;;;4.95;3.40;;;16.80;86.00;;;;;;5027016;28;20079;-79
2021/06/09 03:27:51;;;;;;;3.70;3.38;;;16.80;86.00;;;;;;5029183;28;20010;-80
2021/06/09 03:30:20;;;;;;;3.08;2.72;;;16.80;85.90;;;;;;5021518;28;20089;-79
2021/06/09 03:33:00;;;;;;;2.97;2.78;;;16.90;86.00;;;;;;5019614;28;20068;-79
2021/06/09 03:35:38;;;;;;;4.20;2.22;;;16.90;85.70;;;;;;5024467;28;20029;-78
2021/06/09 03:38:10;;;;;;;4.05;2.10;;;16.90;85.40;;;;;;5025423;28;20072;-80
2021/06/09 03:40:42;;;;;;;4.00;2.63;;;16.90;85.00;;;;;;5028758;28;20029;-80
2021/06/09 03:43:11;;;;;;;2.75;2.05;;;17.00;85.10;;;;;;5026668;28;20033;-80
2021/06/09 03:45:47;;;;;;;2.83;2.47;;;17.10;85.10;;;;;;5027621;28;20021;-80
2021/06/09 03:48:16;;;;;;;4.57;2.47;;;17.10;84.60;;;;;;5026120;28;20342;-80
2021/06/09 03:50:43;;;;;;;11.00;3.55;;;17.10;85.00;;;;;;5028677;28;20068;-80
2021/06/09 03:53:10;;;;;;;3.17;2.88;;;17.20;85.10;;;;;;5018176;28;20021;-80
2021/06/09 03:55:38;;;;;;;5.32;2.92;;;17.20;84.90;;;;;;5021055;28;20084;-80
2021/06/09 03:58:08;;;;;;;2.70;2.42;;;17.20;84.80;;;;;;5026898;28;20030;-80
2021/06/09 04:00:34;;;;;;;2.83;2.25;;;17.30;85.20;;;;;;5023356;28;20034;-80
2021/06/09 04:03:02;;;;;;;2.55;2.15;;;17.30;84.90;;;;;;5023784;28;20235;-80
2021/06/09 04:05:28;;;;;;;3.92;2.70;;;17.30;85.20;;;;;;5024314;28;20025;-80
2021/06/09 04:07:58;;;;;;;6.13;3.45;;;17.40;85.10;;;;;;5028263;28;20017;-80
2021/06/09 04:10:25;;;;;;;3.72;3.13;;;17.40;84.80;;;;;;5024875;28;20033;-80
2021/06/09 04:12:51;;;;;;;5.13;2.35;;;17.40;84.60;;;;;;5024526;28;20152;-80
2021/06/09 04:15:18;;;;;;;4.80;2.88;;;17.40;84.50;;;;;;5025579;28;20037;-80
2021/06/09 04:17:47;;;;;;;9.27;2.47;;;17.40;84.30;;;;;;5017557;28;20733;-79
2021/06/09 04:20:13;;;;;;;4.25;2.25;;;17.40;84.30;;;;;;5021518;28;20037;-78
2021/06/09 04:22:39;;;;;;;2.97;2.55;;;17.40;84.90;;;;;;5021806;28;20101;-79
2021/06/09 04:25:07;;;;;;;5.22;2.78;;;17.50;84.60;;;;;;5017433;28;20113;-80
2021/06/09 04:27:39;;;;;;;5.97;2.80;;;17.60;84.90;;;;;;5026722;28;20029;-69
2021/06/09 04:30:06;;;;;;;3.22;2.45;;;17.60;85.20;;;;;;5025130;28;20526;-69
2021/06/09 04:32:48;;;;;;;4.55;3.22;;;17.80;84.80;;;;;;5025952;28;20040;-70
2021/06/09 04:35:14;;;;;;;4.57;2.13;;;18.10;84.70;;;;;;5028292;28;20024;-70
2021/06/09 04:37:40;;;;;;;4.82;2.40;;;18.20;84.40;;;;;;5025642;28;20037;-70
2021/06/09 04:40:06;;;;;;;3.35;2.20;;;18.40;84.20;;;;;;5025096;28;20481;-76
2021/06/09 04:42:32;;;;;;;3.42;1.55;;;18.80;82.40;;;;;;5031584;28;20017;-76
2021/06/09 04:44:58;;;;;;;3.17;2.55;;;19.10;81.10;;;;;;5029468;28;20021;-76
2021/06/09 04:47:29;;;;;;;2.38;1.75;;;19.20;80.50;;;;;;5028983;28;20388;-75
2021/06/09 04:49:54;;;;;;;5.30;2.22;;;19.30;79.20;;;;;;5027567;28;20021;-77
2021/06/09 04:52:20;;;;;;;4.03;2.13;;;19.50;78.40;;;;;;5026475;28;20037;-76
2021/06/09 04:54:45;;;;;;;3.78;1.98;;;19.50;78.00;;;;;;5023919;28;20034;-77
2021/06/09 04:57:11;;;;;;;4.63;2.25;;;19.20;77.30;;;;;;5026441;28;20029;-78
2021/06/09 04:59:36;;;;;;;2.08;1.83;;;18.90;76.90;;;;;;5028135;28;20061;-78
2021/06/09 05:02:02;;;;;;;2.38;1.92;;;18.70;77.80;;;;;;5025041;28;20467;-77
2021/06/09 05:04:28;;;;;;;6.38;1.85;;;18.50;78.30;;;;;;5029733;28;20079;-77
2021/06/09 05:06:54;;;;;;;5.05;2.35;;;18.40;78.70;;;;;;5029036;28;20025;-78
2021/06/09 05:09:19;;;;;;;3.97;1.90;;;18.30;78.40;;;;;;5024499;28;20051;-77
2021/06/09 05:12:13;;;;;;;3.95;1.95;;;18.20;78.80;;;;;;5026685;28;20044;-77
2021/06/09 05:14:49;;;;;;;3.92;2.45;;;18.10;79.00;;;;;;5024211;28;20112;-77
2021/06/09 05:17:18;;;;;;;7.72;2.17;;;18.10;78.90;;;;;;5020595;28;20029;-76
2021/06/09 05:19:45;;;;;;;6.05;2.63;;;18.20;79.30;;;;;;5032121;28;20030;-69
2021/06/09 05:22:30;;;;;;;6.28;2.05;;;18.20;79.60;;;;;;5018949;28;20034;-69
2021/06/09 05:24:57;;;;;;;7.65;1.48;;;18.40;79.10;;;;;;5020685;28;20025;-69
2021/06/09 05:27:25;;;;;;;3.58;2.38;;;18.50;78.80;;;;;;5029034;28;20083;-69
2021/06/09 05:29:52;;;;;;;5.28;2.30;;;18.50;78.00;;;;;;5029243;28;20044;-69
2021/06/09 05:32:18;;;;;;;5.43;2.25;;;18.80;77.50;;;;;;5029452;28;20091;-71
2021/06/09 05:34:45;;;;;;;7.35;1.33;;;19.40;77.00;;;;;;5029037;28;20021;-70
2021/06/09 05:37:11;;;;;;;3.22;1.48;;;20.10;75.50;;;;;;5029842;28;20131;-71
2021/06/09 05:39:38;;;;;;;4.63;1.48;;;20.70;74.40;;;;;;5028758;28;20044;-70
2021/06/09 05:42:12;;;;;;;2.65;1.52;;;21.20;72.30;;;;;;5028183;28;20030;-70
2021/06/09 05:44:47;;;;;;;2.72;1.70;;;21.20;70.90;;;;;;5028194;28;20029;-71
2021/06/09 05:47:13;;;;;;;4.07;1.75;;;21.20;70.90;;;;;;5029737;28;20362;-71
2021/06/09 05:49:39;;;;;;;3.42;1.75;;;21.20;71.10;;;;;;5028867;28;20087;-71
2021/06/09 05:52:05;;;;;;;4.20;1.70;;;21.20;71.00;;;;;;5030445;28;20439;-71
2021/06/09 05:54:36;;;;;;;3.22;2.03;;;21.10;70.50;;;;;;5030521;28;20179;-71
2021/06/09 05:57:07;;;;;;;3.53;1.55;;;20.90;69.60;;;;;;5020485;28;20025;-71
2021/06/09 05:59:34;;;;;;;3.42;1.83;;;20.80;69.90;;;;;;5025059;28;20039;-71
2021/06/09 06:02:00;;;;;;;7.95;1.75;;;20.70;70.50;;;;;;5022238;28;20052;-71
2021/06/09 06:04:27;;;;;;;8.48;1.90;;;20.70;70.80;;;;;;5024403;28;20026;-71
2021/06/09 06:06:53;;;;;;;9.07;2.55;;;20.70;72.10;;;;;;5027715;28;20053;-71
2021/06/09 06:09:19;;;;;;;11.73;3.10;;;20.80;72.20;;;;;;5027141;28;20065;-71
2021/06/09 06:11:45;;;;;;;17.05;3.00;;;20.90;71.50;;;;;;5026968;28;20060;-71
2021/06/09 06:14:11;;;;;;;78.00;10.45;;;20.90;71.60;;;;;;5023991;28;20030;-71
2021/06/09 06:16:38;;;;;;;21.20;4.20;;;21.00;71.90;;;;;;5025206;28;20036;-71
2021/06/09 06:19:05;;;;;;;122.22;13.77;;;21.10;71.60;;;;;;5022669;28;20026;-71
2021/06/09 06:21:31;;;;;;;5.55;2.20;;;21.20;71.30;;;;;;5029340;28;20026;-71
2021/06/09 06:23:58;;;;;;;3.33;1.30;;;21.30;70.80;;;;;;5022440;28;20042;-71
2021/06/09 06:26:25;;;;;;;5.57;2.00;;;21.30;70.00;;;;;;5026394;28;20030;-72
2021/06/09 06:28:55;;;;;;;4.03;1.60;;;21.30;69.00;;;;;;5022163;28;20044;-73
2021/06/09 06:31:34;;;;;;;4.40;1.95;;;21.20;68.00;;;;;;5017496;28;20128;-73
2021/06/09 06:34:07;;;;;;;2.25;1.30;;;21.10;67.50;;;;;;5018621;28;20066;-74
2021/06/09 06:36:37;;;;;;;2.85;1.27;;;21.10;67.90;;;;;;5006496;28;20064;-74
2021/06/09 06:39:08;;;;;;;6.53;2.28;;;21.00;68.30;;;;;;5024979;28;20049;-74
2021/06/09 06:41:38;;;;;;;25.17;16.25;;;21.00;68.00;;;;;;5026549;28;20041;-73
2021/06/09 06:44:06;;;;;;;29.83;19.15;;;21.10;68.50;;;;;;5028812;28;20515;-73
2021/06/09 06:46:32;;;;;;;6.47;2.67;;;21.10;68.00;;;;;;5027326;28;20031;-72
2021/06/09 06:49:00;;;;;;;11.65;7.55;;;21.20;67.30;;;;;;5027505;28;20463;-73
2021/06/09 06:51:27;;;;;;;6.97;3.20;;;21.30;68.10;;;;;;5029066;28;20252;-73
2021/06/09 06:53:55;;;;;;;4.93;3.63;;;21.40;67.20;;;;;;5031706;28;20389;-73
2021/06/09 06:56:25;;;;;;;2.47;1.50;;;21.40;66.60;;;;;;5022880;28;20038;-73
2021/06/09 06:58:52;;;;;;;6.50;2.13;;;21.50;65.90;;;;;;5021644;28;20045;-72
2021/06/09 07:01:30;;;;;;;2.83;1.50;;;21.40;66.00;;;;;;5023168;28;20029;-73
2021/06/09 07:03:58;;;;;;;4.70;1.70;;;21.50;66.30;;;;;;5026778;28;20060;-73
2021/06/09 07:06:24;;;;;;;1.88;1.40;;;21.60;65.50;;;;;;5023658;28;20069;-73
2021/06/09 07:08:50;;;;;;;2.58;1.65;;;21.60;65.30;;;;;;5024364;28;20427;-72
2021/06/09 07:11:17;;;;;;;4.20;1.45;;;21.70;65.10;;;;;;5024926;28;20044;-73
2021/06/09 07:13:45;;;;;;;3.28;1.70;;;21.70;64.80;;;;;;5016878;28;20036;-73
2021/06/09 07:16:11;;;;;;;3.22;1.58;;;21.60;65.40;;;;;;5029116;28;20400;-71
2021/06/09 07:18:44;;;;;;;3.53;2.00;;;21.60;65.70;;;;;;5020305;28;20026;-72
2021/06/09 07:21:11;;;;;;;3.33;1.45;;;21.60;65.90;;;;;;5022625;28;20029;-71
2021/06/09 07:23:37;;;;;;;1.85;0.95;;;21.70;65.90;;;;;;5027191;28;20493;-75
2021/06/09 07:26:06;;;;;;;2.90;1.38;;;21.70;65.90;;;;;;5022427;28;20067;-74
2021/06/09 07:28:35;;;;;;;2.28;1.48;;;21.70;65.50;;;;;;5026628;28;20022;-74
2021/06/09 07:31:00;;;;;;;2.30;1.38;;;21.80;65.80;;;;;;5022292;28;20021;-74
2021/06/09 07:33:26;;;;;;;1.30;1.20;;;21.80;65.00;;;;;;5020770;28;20120;-75
2021/06/09 07:35:55;;;;;;;4.47;1.58;;;21.80;64.00;;;;;;5026271;28;20041;-75
2021/06/09 07:38:25;;;;;;;3.45;1.30;;;21.70;64.90;;;;;;5025427;28;20060;-75
2021/06/09 07:40:59;;;;;;;4.05;1.50;;;21.70;65.10;;;;;;5026806;28;20120;-74
2021/06/09 07:43:29;;;;;;;5.00;1.70;;;21.70;65.50;;;;;;5018312;28;20029;-75
2021/06/09 07:46:22;;;;;;;2.20;1.30;;;21.80;65.00;;;;;;5034993;28;20491;-74
2021/06/09 07:48:56;;;;;;;2.47;1.45;;;21.80;64.70;;;;;;5024545;28;20167;-74
2021/06/09 07:51:30;;;;;;;1.95;1.63;;;21.90;63.60;;;;;;5022534;28;20025;-74
2021/06/09 07:54:36;;;;;;;3.17;1.45;;;22.00;64.10;;;;;;5024543;28;20200;-74
2021/06/09 07:57:12;;;;;;;2.15;1.90;;;22.10;63.40;;;;;;5025666;28;20621;-73
2021/06/09 07:59:39;;;;;;;2.65;1.38;;;22.10;62.00;;;;;;5019673;28;20025;-73
2021/06/09 08:02:23;;;;;;;2.05;1.20;;;22.10;63.60;;;;;;5027033;28;20106;-73
2021/06/09 08:05:03;;;;;;;1.80;1.33;;;22.20;63.30;;;;;;5013601;28;20091;-73
2021/06/09 08:11:04;;;;;;;2.22;1.58;;;22.30;62.60;;;;;;5022251;28;20515;-74
2021/06/09 08:13:57;;;;;;;3.33;1.65;;;22.40;63.50;;;;;;5015233;28;20124;-73
2021/06/09 08:16:52;;;;;;;1.50;1.30;;;22.50;63.40;;;;;;5029831;28;20160;-73
2021/06/09 08:19:27;;;;;;;3.85;1.50;;;22.40;63.30;;;;;;5007968;28;20076;-73
2021/06/09 08:22:14;;;;;;;3.03;1.33;;;22.60;63.30;;;;;;5030165;28;20412;-73
2021/06/09 08:25:13;;;;;;;3.33;1.48;;;22.70;63.00;;;;;;5025170;28;20037;-74
2021/06/09 08:27:48;;;;;;;4.55;1.88;;;22.90;63.00;;;;;;5028232;28;20030;-74
2021/06/09 08:30:15;;;;;;;2.63;1.85;;;23.10;62.70;;;;;;5025550;28;20025;-74
2021/06/09 08:32:41;;;;;;;5.40;1.83;;;23.20;61.70;;;;;;5026821;28;20040;-74
2021/06/09 08:35:08;;;;;;;5.40;2.22;;;23.30;63.10;;;;;;5037257;28;20396;-73
2021/06/09 08:37:34;;;;;;;3.42;1.70;;;23.50;62.30;;;;;;5037322;28;20531;-73
2021/06/09 08:40:00;;;;;;;5.15;2.17;;;23.80;62.00;;;;;;5037189;28;20488;-73
2021/06/09 08:42:33;;;;;;;4.15;2.03;;;23.90;62.10;;;;;;5026642;28;20083;-74
2021/06/09 08:45:00;;;;;;;4.45;2.00;;;24.10;61.80;;;;;;5027647;28;20075;-77
2021/06/09 08:47:26;;;;;;;8.75;1.70;;;24.20;61.40;;;;;;5030136;28;20418;-76
2021/06/09 08:49:54;;;;;;;3.35;1.35;;;24.50;61.60;;;;;;5018912;28;20104;-74
2021/06/09 08:52:22;;;;;;;6.75;1.55;;;24.80;61.50;;;;;;5029533;28;20038;-74
2021/06/09 08:54:49;;;;;;;1.58;1.40;;;25.00;60.30;;;;;;5026502;28;20027;-75
2021/06/09 08:57:16;;;;;;;3.00;1.60;;;25.10;60.20;;;;;;5027542;28;20029;-71
2021/06/09 08:59:45;;;;;;;3.15;1.63;;;25.20;60.10;;;;;;5024088;28;20118;-73
2021/06/09 09:02:12;;;;;;;3.65;1.65;;;25.20;59.40;;;;;;5020906;28;20412;-73
2021/06/09 09:04:39;;;;;;;7.70;2.53;;;25.10;59.10;;;;;;5021441;28;20021;-73
2021/06/09 09:07:06;;;;;;;12.40;2.20;;;25.10;59.40;;;;;;5027763;28;20064;-72
2021/06/09 09:09:32;;;;;;;5.18;1.73;;;25.10;59.60;;;;;;5035852;28;20029;-75
2021/06/09 09:11:58;;;;;;;3.30;2.45;;;25.20;58.50;;;;;;5028162;28;20063;-75
2021/06/09 09:14:24;;;;;;;2.80;1.70;;;25.10;58.10;;;;;;5024995;28;20031;-75
2021/06/09 09:17:12;;;;;;;2.30;1.73;;;25.20;58.80;;;;;;5028422;28;20052;-75
2021/06/09 09:19:41;;;;;;;4.00;1.88;;;25.10;58.30;;;;;;5027948;28;20053;-74
2021/06/09 09:22:34;;;;;;;2.50;1.75;;;24.90;57.70;;;;;;5029680;28;20116;-74
2021/06/09 09:25:11;;;;;;;5.10;2.30;;;24.60;57.80;;;;;;5019023;28;20184;-74
2021/06/09 09:27:36;;;;;;;2.50;1.85;;;24.40;58.00;;;;;;5027778;28;20026;-74
2021/06/09 09:30:09;;;;;;;2.42;1.65;;;24.30;58.80;;;;;;5028182;28;20022;-74
2021/06/09 09:32:36;;;;;;;6.22;2.13;;;24.20;58.50;;;;;;5025046;28;20076;-74
2021/06/09 09:35:06;;;;;;;3.67;1.88;;;24.10;59.50;;;;;;5024960;28;20107;-75
2021/06/09 09:37:32;;;;;;;7.88;2.72;;;24.20;59.80;;;;;;5028739;28;20714;-74
2021/06/09 09:40:16;;;;;;;2.42;1.92;;;24.20;60.00;;;;;;5029463;28;20456;-75
2021/06/09 09:42:43;;;;;;;2.75;2.55;;;24.20;59.60;;;;;;5029086;28;20503;-74
2021/06/09 09:45:13;;;;;;;3.28;2.20;;;24.20;59.60;;;;;;5027423;28;20043;-74
2021/06/09 09:47:39;;;;;;;4.55;3.08;;;24.20;59.50;;;;;;5029172;28;20056;-74
2021/06/09 09:50:08;;;;;;;3.90;1.77;;;24.20;59.80;;;;;;5020343;28;20100;-74
2021/06/09 09:52:48;;;;;;;5.22;2.70;;;24.40;60.30;;;;;;5028056;28;20038;-74
2021/06/09 09:55:14;;;;;;;7.05;3.60;;;24.50;59.90;;;;;;5024346;28;20072;-75
2021/06/09 09:57:40;;;;;;;4.53;3.53;;;24.60;59.70;;;;;;5024306;28;20029;-76
2021/06/09 10:00:07;;;;;;;4.75;2.10;;;24.60;59.80;;;;;;5026631;28;20508;-75
2021/06/09 10:02:33;;;;;;;3.60;2.85;;;24.70;59.00;;;;;;5027860;28;20101;-75
2021/06/09 10:05:10;;;;;;;2.55;2.35;;;24.70;58.80;;;;;;5029670;28;20105;-74
2021/06/09 10:07:37;;;;;;;3.92;2.97;;;24.70;58.80;;;;;;5013401;28;20388;-74
2021/06/09 10:10:05;;;;;;;3.65;2.75;;;24.50;57.80;;;;;;5021979;28;20117;-74
2021/06/09 10:12:31;;;;;;;5.47;2.55;;;24.40;58.30;;;;;;5026383;28;20030;-74
2021/06/09 10:14:56;;;;;;;6.07;2.50;;;24.40;59.50;;;;;;5019285;28;20025;-71
2021/06/09 10:17:25;;;;;;;2.25;2.05;;;24.60;59.70;;;;;;5020436;28;20072;-71
2021/06/09 10:19:54;;;;;;;3.72;2.08;;;24.70;59.90;;;;;;5013082;28;20436;-71
2021/06/09 10:22:30;;;;;;;3.97;2.55;;;24.60;58.80;;;;;;5023517;28;20025;-71
2021/06/09 10:25:04;;;;;;;3.92;1.85;;;24.60;59.40;;;;;;5028432;28;20380;-70
2021/06/09 10:27:49;;;;;;;2.45;2.15;;;24.70;60.00;;;;;;5020691;28;20040;-71
2021/06/09 10:30:20;;;;;;;5.63;2.40;;;25.00;59.40;;;;;;5028428;28;20028;-70
2021/06/09 10:32:56;;;;;;;3.38;2.08;;;25.10;59.40;;;;;;5026115;28;20100;-71
2021/06/09 10:35:26;;;;;;;2.85;2.05;;;25.20;58.90;;;;;;5025247;28;20980;-72
2021/06/09 10:37:53;;;;;;;3.65;2.47;;;25.30;59.20;;;;;;5022951;28;20038;-71
2021/06/09 10:40:20;;;;;;;2.50;1.65;;;25.70;59.40;;;;;;5025961;28;20481;-72
2021/06/09 10:42:48;;;;;;;3.55;2.70;;;25.90;58.60;;;;;;5024445;28;20029;-71
2021/06/09 10:45:16;;;;;;;6.30;2.05;;;26.00;57.40;;;;;;5023744;28;20028;-70
2021/06/09 10:47:44;;;;;;;2.20;2.00;;;25.90;56.60;;;;;;5024608;28;20048;-71
2021/06/09 10:50:11;;;;;;;5.57;2.20;;;25.80;56.70;;;;;;5024421;28;20029;-73
2021/06/09 10:52:39;;;;;;;7.35;2.10;;;25.70;56.70;;;;;;5027884;28;20476;-71
2021/06/09 10:55:07;;;;;;;4.65;2.30;;;25.50;56.60;;;;;;5024395;28;20095;-70
2021/06/09 10:57:32;;;;;;;6.90;2.63;;;25.30;56.10;;;;;;5027222;28;20381;-70
2021/06/09 10:59:58;;;;;;;3.92;3.40;;;25.30;56.70;;;;;;5018390;28;20075;-70
2021/06/09 11:02:25;;;;;;;9.98;6.22;;;25.20;57.20;;;;;;5021582;28;20033;-72
2021/06/09 11:04:55;;;;;;;7.03;4.45;;;25.30;57.20;;;;;;5038571;28;20054;-72
2021/06/09 11:07:27;;;;;;;10.90;4.15;;;25.40;57.60;;;;;;5028292;28;20029;-72
2021/06/09 11:09:53;;;;;;;3.13;2.78;;;25.50;56.70;;;;;;5021910;28;20380;-73
2021/06/09 11:12:21;;;;;;;4.82;4.03;;;25.40;56.80;;;;;;5020805;28;20493;-71
2021/06/09 11:14:59;;;;;;;4.60;2.70;;;25.50;57.10;;;;;;5026467;28;20365;-71
2021/06/09 11:17:35;;;;;;;3.22;1.90;;;25.80;57.70;;;;;;5026750;28;20492;-72
2021/06/09 11:20:18;;;;;;;7.55;2.63;;;26.00;56.40;;;;;;5024685;28;20033;-71
2021/06/09 11:22:49;;;;;;;3.95;2.65;;;26.20;55.40;;;;;;5022620;28;20036;-73
2021/06/09 11:25:17;;;;;;;3.90;2.45;;;26.30;55.80;;;;;;5024314;28;20029;-73
2021/06/09 11:28:13;;;;;;;3.10;2.40;;;26.50;56.40;;;;;;5025051;28;20028;-71
2021/06/09 11:30:51;;;;;;;4.72;2.47;;;26.60;54.00;;;;;;5020918;28;20101;-71
2021/06/09 11:33:56;;;;;;;3.10;2.30;;;26.60;52.50;;;;;;5024984;28;20112;-70
2021/06/09 11:36:21;;;;;;;5.10;2.67;;;26.20;52.90;;;;;;5005553;28;20033;-71
2021/06/09 11:38:53;;;;;;;2.70;2.50;;;26.00;54.50;;;;;;5022859;28;20044;-70
2021/06/09 11:41:21;;;;;;;2.63;2.40;;;26.10;54.90;;;;;;5027172;28;20310;-70
2021/06/09 11:43:49;;;;;;;3.60;2.65;;;26.40;53.80;;;;;;5024117;28;20026;-69
2021/06/09 11:46:17;;;;;;;3.00;2.70;;;26.50;54.00;;;;;;5025525;28;20026;-69
2021/06/09 11:49:04;;;;;;;4.65;3.33;;;26.70;54.70;;;;;;5039147;28;20108;-71
2021/06/09 11:51:43;;;;;;;;;;;26.90;52.90;;;;;;5032867;28;20358;-71
2021/06/09 11:54:14;;;;;;;5.80;3.88;;;27.00;53.30;;;;;;5027453;28;20338;-71
2021/06/09 11:56:45;;;;;;;5.07;3.38;;;27.10;51.30;;;;;;5032334;28;20064;-72
2021/06/09 11:59:35;;;;;;;9.82;3.95;;;27.10;52.40;;;;;;5027809;28;20041;-72
2021/06/09 12:02:05;;;;;;;4.78;3.78;;;27.20;51.40;;;;;;5028895;28;20028;-71
2021/06/09 12:04:40;;;;;;;5.50;4.32;;;27.10;51.50;;;;;;5028782;28;20032;-71
2021/06/09 12:07:07;;;;;;;5.07;4.53;;;27.20;52.10;;;;;;5029814;28;20025;-72
2021/06/09 12:09:37;;;;;;;9.90;5.50;;;27.30;51.80;;;;;;5028521;28;20488;-71
2021/06/09 12:12:33;;;;;;;27.85;7.80;;;27.20;49.60;;;;;;5028353;28;20467;-71
2021/06/09 12:15:01;;;;;;;17.45;5.05;;;27.00;51.40;;;;;;5015332;28;20041;-71
2021/06/09 12:17:39;;;;;;;25.90;5.22;;;27.20;52.90;;;;;;5024929;28;20029;-68
2021/06/09 12:20:11;;;;;;;13.52;4.82;;;27.40;52.80;;;;;;5026545;28;20026;-70
2021/06/09 12:22:48;;;;;;;18.60;5.28;;;27.70;52.90;;;;;;5031872;28;20022;-70
2021/06/09 12:25:23;;;;;;;35.88;7.53;;;27.90;52.10;;;;;;5031456;28;20032;-70
2021/06/09 12:28:06;;;;;;;16.15;4.85;;;28.00;52.10;;;;;;5024294;28;20033;-70
2021/06/09 12:30:36;;;;;;;15.88;4.57;;;28.20;51.80;;;;;;5031415;28;20514;-71
2021/06/09 12:33:02;;;;;;;6.15;4.13;;;28.40;52.00;;;;;;5028033;28;20071;-71
2021/06/09 12:35:28;;;;;;;5.05;4.55;;;28.40;50.80;;;;;;5029467;28;20060;-70
2021/06/09 12:37:58;;;;;;;8.05;4.10;;;28.20;51.20;;;;;;5028097;28;20033;-68
2021/06/09 12:40:28;;;;;;;6.47;4.15;;;28.00;51.80;;;;;;5031164;28;20018;-70
2021/06/09 12:42:56;;;;;;;6.57;4.15;;;27.80;51.70;;;;;;5025444;28;20497;-69
2021/06/09 12:45:24;;;;;;;5.97;4.07;;;27.90;52.00;;;;;;5027921;28;20545;-69
2021/06/09 12:47:51;;;;;;;4.82;4.35;;;28.00;52.60;;;;;;5036384;28;20033;-69
2021/06/09 12:50:16;;;;;;;11.50;5.18;;;28.10;52.50;;;;;;5024123;28;20037;-69
2021/06/09 12:52:45;;;;;;;5.13;4.03;;;28.20;51.70;;;;;;5024187;28;20088;-69
2021/06/09 12:55:14;;;;;;;5.53;4.38;;;28.20;52.50;;;;;;5028341;28;20037;-68
2021/06/09 12:57:40;;;;;;;5.20;4.70;;;28.20;52.00;;;;;;5027612;28;20029;-69
2021/06/09 13:00:28;;;;;;;4.90;3.95;;;28.20;52.20;;;;;;5025032;28;20040;-68
2021/06/09 13:03:27;;;;;;;5.80;3.97;;;28.30;52.30;;;;;;5028592;28;20029;-69
2021/06/09 13:06:00;;;;;;;10.20;4.82;;;28.30;52.20;;;;;;5028728;28;20032;-68
2021/06/09 13:08:47;;;;;;;20.58;6.28;;;28.40;51.60;;;;;;5034630;28;20034;-69